Pineglen — VOGX — position and weather

sailwx.info

Track history (hours):
 
Tides and Currents Weather Stations Pressure Air Temp Water Temp Dewpoint Dewpoint Depression Visibility Wind Speed Wind Dir Waves Ship Positions

Pineglen

Last reported at 2014-Sep-12 13:34 UTC. Time now 2014-Sep-16 03:00 UTC.
Position N 45°13' W 074°05'.

Date/timePositionNaut miles runAvg speedWind from/ knotsBaromVisibWave heightAir tempDewpointWater temp
2014-Sep-12 13:34N 45°13' W 074°05'8 8.0
2014-Sep-12 12:33N 45°18' W 073°56'1 1.4
2014-Sep-12 11:33N 45°19' W 073°55'4 3.6
2014-Sep-12 10:34N 45°21' W 073°51'8 8.4
2014-Sep-12 09:34N 45°25' W 073°40'5 4.6
2014-Sep-12 08:34N 45°24' W 073°34'3 2.8
2014-Sep-12 07:33N 45°26' W 073°30'4 4.1
2014-Sep-12 06:33N 45°30' W 073°31'3 2.8
2014-Sep-12 05:33N 45°32' W 073°32'1 1.2
2014-Sep-12 04:33N 45°34' W 073°31'0 0.0
2014-Sep-12 03:33N 45°34' W 073°31'0 0.0
2014-Sep-12 02:33N 45°34' W 073°31'0 0.0
2014-Sep-12 01:33N 45°34' W 073°31'0 0.0
2014-Sep-12 00:33N 45°34' W 073°31'0 0.0
2014-Sep-11 23:33N 45°34' W 073°31'0 0.0
2014-Sep-11 22:33N 45°34' W 073°31'0 0.0
2014-Sep-11 21:33N 45°34' W 073°31'0 0.0
2014-Sep-11 20:33N 45°34' W 073°31'0 0.0
2014-Sep-11 18:33N 45°34' W 073°31'0 0.0
2014-Sep-11 17:33N 45°34' W 073°31'0 0.0
2014-Sep-11 16:33N 45°34' W 073°31'0 0.0
2014-Sep-11 15:33N 45°34' W 073°31'0 0.0
2014-Sep-11 14:33N 45°34' W 073°31'0 0.0
2014-Sep-11 13:33N 45°34' W 073°31'0 0.0
2014-Sep-11 12:33N 45°34' W 073°31'0 0.0
2014-Sep-11 11:33N 45°34' W 073°31'0 0.0
2014-Sep-11 09:33N 45°34' W 073°31'0 0.0
2014-Sep-11 08:33N 45°34' W 073°31'0 0.0
2014-Sep-11 07:33N 45°34' W 073°31'0 0.0
2014-Sep-11 06:33N 45°34' W 073°31'0 0.0
2014-Sep-11 05:33N 45°34' W 073°31'0 0.0
2014-Sep-11 04:33N 45°34' W 073°31'0 0.0
2014-Sep-11 03:33N 45°34' W 073°31'0 0.0
2014-Sep-11 02:33N 45°34' W 073°31'0 0.0
2014-Sep-11 01:33N 45°34' W 073°31'0 0.0
2014-Sep-11 00:33N 45°34' W 073°31'0 0.0
2014-Sep-10 23:33N 45°34' W 073°31'0 0.0
2014-Sep-10 22:33N 45°34' W 073°31'0 0.0
2014-Sep-10 21:33N 45°34' W 073°31'0 0.0
2014-Sep-10 20:33N 45°34' W 073°31'0 0.0
2014-Sep-10 19:33N 45°34' W 073°31'0 0.0
2014-Sep-10 18:33N 45°34' W 073°31'0 0.0
2014-Sep-10 17:33N 45°34' W 073°31'0 0.2
2014-Sep-10 16:33N 45°34' W 073°31'4 4.1
2014-Sep-10 15:33N 45°30' W 073°31'1 0.8
2014-Sep-10 14:33N 45°29' W 073°31'5 4.5
2014-Sep-10 13:33N 45°24' W 073°32'1 1.4
2014-Sep-10 12:33N 45°24' W 073°34'16 5.2
2014-Sep-10 09:33N 45°19' W 073°55'1 0.8
2014-Sep-10 08:33N 45°18' W 073°56'1 0.6
2014-Sep-10 07:33N 45°18' W 073°56'5 5.1
2014-Sep-10 06:33N 45°14' W 074°01'8 7.6
2014-Sep-10 05:33N 45°14' W 074°11'10 9.8
2014-Sep-10 04:33N 45°09' W 074°23'1410.1
2014-Sep-10 03:12N 45°01' W 074°39'  
2014-Sep-06 12:33N 46°33' W 084°41'1211.8
2014-Sep-06 11:33N 46°43' W 084°51'  
2014-Sep-03 13:33N 46°13' W 084°07'9 8.9
2014-Sep-03 12:33N 46°05' W 084°01'9 9.4
2014-Sep-03 11:33N 45°58' W 083°53'1212.2
2014-Sep-03 10:33N 45°47' W 083°44'  
Track history (hours):
 
Tides and Currents Weather Stations Pressure Air Temp Water Temp Dewpoint Dewpoint Depression Visibility Wind Speed Wind Dir Waves Ship Positions

Pineglen

Last reported at 2014-Sep-12 13:34 UTC. Time now 2014-Sep-16 03:00 UTC.
Position N 45°13' W 074°05'.

Date/timePositionNaut miles runAvg speedWind from/ knotsBaromVisibWave heightAir tempDewpointWater temp
2014-Sep-12 13:34N 45°13' W 074°05'8 8.0
2014-Sep-12 12:33N 45°18' W 073°56'1 1.4
2014-Sep-12 11:33N 45°19' W 073°55'4 3.6
2014-Sep-12 10:34N 45°21' W 073°51'8 8.4
2014-Sep-12 09:34N 45°25' W 073°40'5 4.6
2014-Sep-12 08:34N 45°24' W 073°34'3 2.8
2014-Sep-12 07:33N 45°26' W 073°30'4 4.1
2014-Sep-12 06:33N 45°30' W 073°31'3 2.8
2014-Sep-12 05:33N 45°32' W 073°32'1 1.2
2014-Sep-12 04:33N 45°34' W 073°31'0 0.0
2014-Sep-12 03:33N 45°34' W 073°31'0 0.0
2014-Sep-12 02:33N 45°34' W 073°31'0 0.0
2014-Sep-12 01:33N 45°34' W 073°31'0 0.0
2014-Sep-12 00:33N 45°34' W 073°31'0 0.0
2014-Sep-11 23:33N 45°34' W 073°31'0 0.0
2014-Sep-11 22:33N 45°34' W 073°31'0 0.0
2014-Sep-11 21:33N 45°34' W 073°31'0 0.0
2014-Sep-11 20:33N 45°34' W 073°31'0 0.0
2014-Sep-11 18:33N 45°34' W 073°31'0 0.0
2014-Sep-11 17:33N 45°34' W 073°31'0 0.0
2014-Sep-11 16:33N 45°34' W 073°31'0 0.0
2014-Sep-11 15:33N 45°34' W 073°31'0 0.0
2014-Sep-11 14:33N 45°34' W 073°31'0 0.0
2014-Sep-11 13:33N 45°34' W 073°31'0 0.0
2014-Sep-11 12:33N 45°34' W 073°31'0 0.0
2014-Sep-11 11:33N 45°34' W 073°31'0 0.0
2014-Sep-11 09:33N 45°34' W 073°31'0 0.0
2014-Sep-11 08:33N 45°34' W 073°31'0 0.0
2014-Sep-11 07:33N 45°34' W 073°31'0 0.0
2014-Sep-11 06:33N 45°34' W 073°31'0 0.0
2014-Sep-11 05:33N 45°34' W 073°31'0 0.0
2014-Sep-11 04:33N 45°34' W 073°31'0 0.0
2014-Sep-11 03:33N 45°34' W 073°31'0 0.0
2014-Sep-11 02:33N 45°34' W 073°31'0 0.0
2014-Sep-11 01:33N 45°34' W 073°31'0 0.0
2014-Sep-11 00:33N 45°34' W 073°31'0 0.0
2014-Sep-10 23:33N 45°34' W 073°31'0 0.0
2014-Sep-10 22:33N 45°34' W 073°31'0 0.0
2014-Sep-10 21:33N 45°34' W 073°31'0 0.0
2014-Sep-10 20:33N 45°34' W 073°31'0 0.0
2014-Sep-10 19:33N 45°34' W 073°31'0 0.0
2014-Sep-10 18:33N 45°34' W 073°31'0 0.0
2014-Sep-10 17:33N 45°34' W 073°31'0 0.2
2014-Sep-10 16:33N 45°34' W 073°31'4 4.1
2014-Sep-10 15:33N 45°30' W 073°31'1 0.8
2014-Sep-10 14:33N 45°29' W 073°31'5 4.5
2014-Sep-10 13:33N 45°24' W 073°32'1 1.4
2014-Sep-10 12:33N 45°24' W 073°34'16 5.2
2014-Sep-10 09:33N 45°19' W 073°55'1 0.8
2014-Sep-10 08:33N 45°18' W 073°56'1 0.6
2014-Sep-10 07:33N 45°18' W 073°56'5 5.1
2014-Sep-10 06:33N 45°14' W 074°01'8 7.6
2014-Sep-10 05:33N 45°14' W 074°11'10 9.8
2014-Sep-10 04:33N 45°09' W 074°23'1410.1
2014-Sep-10 03:12N 45°01' W 074°39'  
2014-Sep-06 12:33N 46°33' W 084°41'1211.8
2014-Sep-06 11:33N 46°43' W 084°51'  
2014-Sep-03 13:33N 46°13' W 084°07'9 8.9
2014-Sep-03 12:33N 46°05' W 084°01'9 9.4
2014-Sep-03 11:33N 45°58' W 083°53'1212.2
2014-Sep-03 10:33N 45°47' W 083°44'  

Dump ship's entire track history